Wetterdaten: Woche 08.10.01 - 14.10.01 (KW41)
Datum Zeit Temperatur Luftfeuchte Luftdruck Regenmenge Wind Richtung Taupunkt Windchill
08.10.2001 00:00 12.3 C 94 % 1002.6 hPa 0.0 l/m 0.3 km/h (0 Bft) O-SO 11.4 C 12.3 C
08.10.2001 01:00 12.3 C 94 % 1002.6 hPa 0.0 l/m 2.1 km/h (1 Bft) O-SO 11.4 C 12.3 C
08.10.2001 02:00 12.1 C 94 % 1002.6 hPa 0.0 l/m 1.6 km/h (1 Bft) O-SO 11.2 C 12.1 C
08.10.2001 03:00 11.9 C 94 % 1002.6 hPa 0.0 l/m 2.6 km/h (1 Bft) O-SO 11.0 C 11.9 C
08.10.2001 04:00 11.9 C 94 % 1002.6 hPa 0.0 l/m 1.2 km/h (1 Bft) O-SO 11.0 C 11.9 C
08.10.2001 05:00 12.1 C 94 % 1002.6 hPa 0.0 l/m 0.0 km/h (0 Bft) N 11.2 C 12.1 C
08.10.2001 06:00 12.1 C 94 % 1002.6 hPa 0.0 l/m 0.0 km/h (0 Bft) O-SO 11.2 C 12.1 C
08.10.2001 07:00 11.8 C 94 % 1002.6 hPa 0.0 l/m 5.2 km/h (1 Bft) O-SO 10.8 C 11.8 C
08.10.2001 08:00 11.9 C 93 % 1002.7 hPa 0.0 l/m 4.7 km/h (1 Bft) O-SO 10.8 C 11.9 C
08.10.2001 09:00 12.3 C 92 % 1003.6 hPa 0.0 l/m 6.4 km/h (2 Bft) O-SO 10.9 C 12.3 C
08.10.2001 10:00 13.2 C 87 % 1003.6 hPa 0.0 l/m 6.2 km/h (2 Bft) O-SO 11.1 C 13.2 C
08.10.2001 11:00 14.0 C 83 % 1003.6 hPa 0.0 l/m 0.8 km/h (0 Bft) O 11.3 C 14.0 C
08.10.2001 12:00 14.8 C 80 % 1002.8 hPa 0.0 l/m 0.2 km/h (0 Bft) N 11.3 C 14.8 C
08.10.2001 13:00 16.2 C 71 % 1003.3 hPa 0.0 l/m 11.4 km/h (2 Bft) W-NW 10.9 C 16.2 C
08.10.2001 14:00 14.7 C 65 % 1004.4 hPa 0.0 l/m 32.1 km/h (5 Bft) W-NW 8.3 C 14.7 C
08.10.2001 15:00 13.6 C 67 % 1004.7 hPa 0.0 l/m 21.0 km/h (4 Bft) W-NW 7.4 C 13.6 C
08.10.2001 16:00 13.2 C 68 % 1004.7 hPa 0.0 l/m 6.6 km/h (2 Bft) W-NW 7.3 C 13.2 C
08.10.2001 17:00 12.4 C 73 % 1004.7 hPa 0.0 l/m 6.1 km/h (2 Bft) O-SO 7.7 C 12.4 C
08.10.2001 18:00 11.4 C 81 % 1005.4 hPa 0.9 l/m 1.5 km/h (1 Bft) O-SO 8.2 C 11.4 C
08.10.2001 19:00 10.9 C 90 % 1006.4 hPa 0.9 l/m 0.1 km/h (0 Bft) N 9.3 C 10.9 C
08.10.2001 20:00 10.5 C 91 % 1006.7 hPa 2.2 l/m 0.2 km/h (0 Bft) O 9.1 C 10.5 C
08.10.2001 21:00 10.5 C 92 % 1006.8 hPa 0.0 l/m 0.0 km/h (0 Bft) N 9.2 C 10.5 C
08.10.2001 22:00 10.5 C 92 % 1007.4 hPa 0.0 l/m 0.0 km/h (0 Bft) N 9.3 C 10.5 C
08.10.2001 23:00 10.6 C 94 % 1007.8 hPa 0.0 l/m 0.0 km/h (0 Bft) N 9.6 C 10.6 C
09.10.2001 00:00 10.5 C 93 % 1007.8 hPa 0.0 l/m 0.0 km/h (0 Bft) N 9.4 C 10.5 C
09.10.2001 01:00 10.4 C 92 % 1006.7 hPa 0.0 l/m 0.4 km/h (0 Bft) O 9.1 C 10.4 C
09.10.2001 02:00 10.4 C 93 % 1007.1 hPa 0.0 l/m 0.0 km/h (0 Bft) N 9.3 C 10.4 C
09.10.2001 03:00 10.3 C 92 % 1006.7 hPa 0.0 l/m 0.6 km/h (0 Bft) O 9.1 C 10.3 C
09.10.2001 04:00 10.3 C 92 % 1007.0 hPa 0.0 l/m 0.2 km/h (0 Bft) O-SO 9.2 C 10.3 C
09.10.2001 05:00 10.6 C 93 % 1007.8 hPa 0.0 l/m 0.0 km/h (0 Bft) N 9.5 C 10.6 C
09.10.2001 06:00 10.7 C 93 % 1007.8 hPa 0.0 l/m 0.0 km/h (0 Bft) N 9.6 C 10.7 C
09.10.2001 07:00 10.8 C 93 % 1007.8 hPa 0.0 l/m 0.0 km/h (0 Bft) N 9.7 C 10.8 C
09.10.2001 08:00 10.9 C 94 % 1008.6 hPa 0.0 l/m 0.1 km/h (0 Bft) W-NW 10.0 C 10.9 C
09.10.2001 09:00 11.3 C 93 % 1008.8 hPa 0.0 l/m 0.1 km/h (0 Bft) N 10.2 C 11.3 C
09.10.2001 10:00 11.9 C 89 % 1009.2 hPa 0.0 l/m 1.1 km/h (1 Bft) W-NW 10.2 C 11.9 C
09.10.2001 11:00 13.0 C 82 % 1009.3 hPa 0.0 l/m 0.5 km/h (0 Bft) W 10.1 C 13.0 C
09.10.2001 12:00 14.1 C 75 % 1009.7 hPa 0.0 l/m 0.2 km/h (0 Bft) W-NW 9.7 C 14.1 C
09.10.2001 13:00 14.9 C 70 % 1009.2 hPa 0.0 l/m 0.1 km/h (0 Bft) N 9.6 C 14.9 C
09.10.2001 14:00 15.4 C 70 % 1009.2 hPa 0.0 l/m 0.2 km/h (0 Bft) W 10.0 C 15.4 C
09.10.2001 15:00 15.8 C 72 % 1009.2 hPa 0.0 l/m 0.9 km/h (0 Bft) O-SO 10.8 C 15.8 C
09.10.2001 16:00 16.8 C 70 % 1009.2 hPa 0.0 l/m 3.0 km/h (1 Bft) O-SO 11.3 C 16.8 C
09.10.2001 17:00 15.8 C 72 % 1009.2 hPa 0.0 l/m 0.5 km/h (0 Bft) O 10.7 C 15.8 C
09.10.2001 18:00 14.6 C 80 % 1009.2 hPa 0.0 l/m 1.8 km/h (1 Bft) O 11.2 C 14.6 C
09.10.2001 19:00 13.7 C 85 % 1009.9 hPa 0.0 l/m 0.0 km/h (0 Bft) N 11.3 C 13.7 C
09.10.2001 20:00 13.2 C 87 % 1010.6 hPa 0.0 l/m 0.0 km/h (0 Bft) N 11.1 C 13.2 C
09.10.2001 21:00 12.8 C 86 % 1011.3 hPa 0.0 l/m 0.0 km/h (0 Bft) N 10.6 C 12.8 C
09.10.2001 22:00 12.1 C 80 % 1011.6 hPa 0.0 l/m 0.0 km/h (0 Bft) N 8.8 C 12.1 C
09.10.2001 23:00 11.6 C 81 % 1012.3 hPa 0.0 l/m 0.0 km/h (0 Bft) N 8.5 C 11.6 C
10.10.2001 00:00 11.0 C 85 % 1012.5 hPa 0.0 l/m 1.3 km/h (1 Bft) O 8.5 C 11.0 C
10.10.2001 01:00 10.6 C 87 % 1012.9 hPa 0.0 l/m 1.9 km/h (1 Bft) O-SO 8.5 C 10.6 C
10.10.2001 02:00 10.4 C 88 % 1013.3 hPa 0.0 l/m 5.2 km/h (1 Bft) O-SO 8.5 C 10.4 C
10.10.2001 03:00 10.1 C 89 % 1013.4 hPa 0.0 l/m 0.2 km/h (0 Bft) O-SO 8.4 C 10.1 C
10.10.2001 04:00 10.2 C 90 % 1014.3 hPa 0.0 l/m 0.8 km/h (0 Bft) O 8.7 C 10.2 C
10.10.2001 05:00 10.4 C 89 % 1014.4 hPa 0.0 l/m 1.0 km/h (0 Bft) O 8.7 C 10.4 C
10.10.2001 06:00 9.9 C 88 % 1014.9 hPa 0.0 l/m 1.6 km/h (1 Bft) O-SO 8.0 C 9.8 C
10.10.2001 07:00 10.1 C 90 % 1015.7 hPa 0.0 l/m 0.6 km/h (0 Bft) O-SO 8.5 C 10.1 C
10.10.2001 08:00 10.7 C 90 % 1017.0 hPa 0.0 l/m 0.2 km/h (0 Bft) O 9.0 C 10.7 C
10.10.2001 09:00 11.7 C 85 % 1017.5 hPa 0.0 l/m 0.2 km/h (0 Bft) O 9.3 C 11.7 C
10.10.2001 10:00 13.0 C 78 % 1018.3 hPa 0.0 l/m 1.1 km/h (0 Bft) W-NW 9.3 C 13.0 C
10.10.2001 11:00 14.4 C 73 % 1018.5 hPa 0.0 l/m 1.4 km/h (1 Bft) W-NW 9.7 C 14.4 C
10.10.2001 12:00 16.0 C 67 % 1018.5 hPa 0.0 l/m 1.5 km/h (1 Bft) W 10.0 C 16.0 C
10.10.2001 13:00 17.4 C 64 % 1018.5 hPa 0.0 l/m 1.5 km/h (1 Bft) W 10.4 C 17.4 C
10.10.2001 14:00 18.5 C 58 % 1018.5 hPa 0.0 l/m 2.4 km/h (1 Bft) W-NW 10.2 C 18.5 C
10.10.2001 15:00 19.3 C 54 % 1018.5 hPa 0.0 l/m 1.4 km/h (1 Bft) W 9.9 C 19.3 C
10.10.2001 16:00 19.5 C 51 % 1018.5 hPa 0.0 l/m 0.7 km/h (0 Bft) SO 9.2 C 19.5 C
10.10.2001 17:00 18.6 C 59 % 1018.6 hPa 0.0 l/m 0.9 km/h (0 Bft) W 10.4 C 18.6 C
10.10.2001 18:00 16.5 C 66 % 1019.6 hPa 0.0 l/m 0.3 km/h (0 Bft) O-SO 10.2 C 16.5 C
10.10.2001 19:00 13.9 C 80 % 1019.8 hPa 0.0 l/m 3.8 km/h (1 Bft) O-SO 10.5 C 13.9 C
10.10.2001 20:00 12.5 C 85 % 1020.6 hPa 0.0 l/m 4.4 km/h (1 Bft) O-SO 10.1 C 12.5 C
10.10.2001 21:00 11.4 C 88 % 1020.9 hPa 0.0 l/m 2.1 km/h (1 Bft) O-SO 9.5 C 11.4 C
10.10.2001 22:00 10.6 C 89 % 1021.6 hPa 0.0 l/m 0.7 km/h (0 Bft) O 8.8 C 10.6 C
10.10.2001 23:00 9.8 C 90 % 1022.7 hPa 0.0 l/m 0.5 km/h (0 Bft) O 8.2 C 9.7 C
11.10.2001 00:00 9.3 C 91 % 1022.7 hPa 0.0 l/m 0.7 km/h (0 Bft) O 7.8 C 9.3 C
11.10.2001 01:00 9.0 C 91 % 1022.7 hPa 0.0 l/m 0.0 km/h (0 Bft) N 7.6 C 9.0 C
11.10.2001 02:00 9.0 C 92 % 1022.7 hPa 0.0 l/m 0.0 km/h (0 Bft) N 7.8 C 9.0 C
11.10.2001 03:00 9.6 C 92 % 1022.7 hPa 0.0 l/m 0.0 km/h (0 Bft) N 8.3 C 9.6 C
11.10.2001 04:00 9.6 C 94 % 1022.7 hPa 0.0 l/m 0.0 km/h (0 Bft) N 8.7 C 9.6 C
11.10.2001 05:00 9.8 C 94 % 1022.8 hPa 0.0 l/m 0.0 km/h (0 Bft) N 8.9 C 9.8 C
11.10.2001 06:00 9.2 C 94 % 1023.7 hPa 0.0 l/m 0.1 km/h (0 Bft) N 8.2 C 9.2 C
11.10.2001 07:00 9.3 C 94 % 1023.7 hPa 0.0 l/m 0.2 km/h (0 Bft) W 8.4 C 9.3 C
11.10.2001 08:00 9.3 C 95 % 1024.0 hPa 0.0 l/m 0.0 km/h (0 Bft) N 8.5 C 9.3 C
11.10.2001 09:00 9.8 C 96 % 1024.7 hPa 0.0 l/m 0.0 km/h (0 Bft) N 9.1 C 9.8 C
11.10.2001 10:00 10.3 C 95 % 1024.8 hPa 0.0 l/m 0.0 km/h (0 Bft) N 9.5 C 10.3 C
11.10.2001 11:00 11.3 C 91 % 1024.7 hPa 0.0 l/m 0.0 km/h (0 Bft) N 9.9 C 11.3 C
11.10.2001 12:00 12.4 C 87 % 1024.7 hPa 0.0 l/m 0.8 km/h (0 Bft) O-SO 10.3 C 12.4 C
11.10.2001 13:00 13.2 C 84 % 1024.1 hPa 0.0 l/m 0.3 km/h (0 Bft) W 10.5 C 13.2 C
11.10.2001 14:00 14.1 C 81 % 1023.7 hPa 0.0 l/m 1.2 km/h (1 Bft) W 10.8 C 14.1 C
11.10.2001 15:00 15.6 C 74 % 1022.8 hPa 0.0 l/m 0.8 km/h (0 Bft) W-NW 11.1 C 15.6 C
11.10.2001 16:00 16.7 C 72 % 1022.4 hPa 0.0 l/m 0.4 km/h (0 Bft) W-NW 11.6 C 16.7 C
11.10.2001 17:00 16.6 C 74 % 1021.6 hPa 0.0 l/m 0.3 km/h (0 Bft) W 11.9 C 16.6 C
11.10.2001 18:00 14.6 C 82 % 1021.6 hPa 0.0 l/m 0.0 km/h (0 Bft) N 11.5 C 14.6 C
11.10.2001 19:00 12.9 C 88 % 1021.6 hPa 0.0 l/m 0.5 km/h (0 Bft) O 10.9 C 12.9 C
11.10.2001 20:00 11.4 C 90 % 1021.8 hPa 0.0 l/m 0.0 km/h (0 Bft) N 9.8 C 11.4 C
11.10.2001 21:00 10.5 C 91 % 1022.0 hPa 0.0 l/m 0.8 km/h (0 Bft) O 9.0 C 10.5 C
11.10.2001 22:00 9.9 C 91 % 1022.6 hPa 0.0 l/m 0.0 km/h (0 Bft) N 8.5 C 9.9 C
11.10.2001 23:00 10.3 C 92 % 1022.1 hPa 0.0 l/m 0.0 km/h (0 Bft) N 9.0 C 10.3 C
12.10.2001 00:00 10.5 C 94 % 1021.6 hPa 0.0 l/m 0.0 km/h (0 Bft) N 9.5 C 10.5 C
12.10.2001 01:00 10.3 C 94 % 1021.6 hPa 0.0 l/m 0.0 km/h (0 Bft) N 9.4 C 10.3 C
12.10.2001 02:00 10.0 C 95 % 1021.6 hPa 0.0 l/m 0.1 km/h (0 Bft) N 9.2 C 10.0 C
12.10.2001 03:00 9.8 C 96 % 1021.6 hPa 0.0 l/m 0.1 km/h (0 Bft) W 9.2 C 9.8 C
12.10.2001 04:00 9.6 C 96 % 1021.6 hPa 0.0 l/m 0.1 km/h (0 Bft) N 9.0 C 9.6 C
12.10.2001 05:00 9.2 C 96 % 1021.6 hPa 0.0 l/m 0.1 km/h (0 Bft) N 8.6 C 9.2 C
12.10.2001 06:00 8.8 C 96 % 1021.6 hPa 0.0 l/m 0.5 km/h (0 Bft) W 8.2 C 8.8 C
12.10.2001 07:00 8.4 C 96 % 1021.6 hPa 0.0 l/m 0.7 km/h (0 Bft) W-NW 7.8 C 8.4 C
12.10.2001 08:00 8.8 C 96 % 1021.6 hPa 0.0 l/m 0.1 km/h (0 Bft) N 8.1 C 8.8 C
12.10.2001 09:00 9.3 C 94 % 1021.6 hPa 0.0 l/m 0.4 km/h (0 Bft) W 8.3 C 9.3 C
12.10.2001 10:00 10.1 C 93 % 1021.8 hPa 0.0 l/m 0.7 km/h (0 Bft) W 9.0 C 10.1 C
12.10.2001 11:00 11.0 C 91 % 1021.8 hPa 0.0 l/m 0.6 km/h (0 Bft) W 9.6 C 11.0 C
12.10.2001 12:00 12.1 C 88 % 1021.6 hPa 0.0 l/m 0.0 km/h (0 Bft) N 10.1 C 12.1 C
12.10.2001 13:00 13.0 C 85 % 1021.6 hPa 0.0 l/m 2.0 km/h (1 Bft) O-SO 10.5 C 13.0 C
12.10.2001 14:00 13.9 C 81 % 1020.6 hPa 0.0 l/m 0.6 km/h (0 Bft) O-NO 10.6 C 13.9 C
12.10.2001 15:00 15.0 C 76 % 1020.0 hPa 0.0 l/m 0.5 km/h (0 Bft) W 10.9 C 15.0 C
12.10.2001 16:00 15.8 C 73 % 1019.6 hPa 0.0 l/m 2.9 km/h (1 Bft) O-SO 11.0 C 15.8 C
12.10.2001 17:00 14.7 C 78 % 1019.2 hPa 0.0 l/m 2.4 km/h (1 Bft) O-SO 11.0 C 14.7 C
12.10.2001 18:00 13.1 C 84 % 1019.0 hPa 0.0 l/m 2.6 km/h (1 Bft) O-SO 10.5 C 13.1 C
12.10.2001 19:00 11.9 C 88 % 1019.4 hPa 0.0 l/m 0.2 km/h (0 Bft) O-SO 10.1 C 11.9 C
12.10.2001 20:00 11.4 C 91 % 1019.4 hPa 0.0 l/m 0.0 km/h (0 Bft) N 10.0 C 11.4 C
12.10.2001 21:00 10.9 C 92 % 1019.3 hPa 0.0 l/m 0.0 km/h (0 Bft) N 9.6 C 10.9 C
12.10.2001 22:00 10.7 C 92 % 1019.5 hPa 0.0 l/m 0.0 km/h (0 Bft) N 9.5 C 10.7 C
12.10.2001 23:00 10.5 C 93 % 1019.6 hPa 0.0 l/m 0.0 km/h (0 Bft) N 9.5 C 10.5 C
13.10.2001 00:00 10.3 C 93 % 1019.6 hPa 0.0 l/m 0.0 km/h (0 Bft) N 9.2 C 10.3 C
13.10.2001 01:00 10.2 C 94 % 1019.6 hPa 0.0 l/m 0.1 km/h (0 Bft) W-NW 9.3 C 10.2 C
13.10.2001 02:00 10.1 C 94 % 1019.6 hPa 0.0 l/m 0.0 km/h (0 Bft) N 9.1 C 10.1 C
13.10.2001 03:00 10.0 C 94 % 1019.6 hPa 0.0 l/m 2.3 km/h (1 Bft) O-SO 9.0 C 9.9 C
13.10.2001 04:00 9.9 C 94 % 1018.6 hPa 0.0 l/m 0.3 km/h (0 Bft) O-SO 9.0 C 9.9 C
13.10.2001 05:00 9.7 C 93 % 1018.5 hPa 0.0 l/m 2.0 km/h (1 Bft) O-SO 8.7 C 9.6 C
13.10.2001 06:00 9.6 C 94 % 1018.5 hPa 0.0 l/m 1.3 km/h (1 Bft) O-SO 8.7 C 9.5 C
13.10.2001 07:00 9.4 C 95 % 1018.5 hPa 0.0 l/m 0.5 km/h (0 Bft) O 8.6 C 9.4 C
13.10.2001 08:00 9.3 C 95 % 1018.5 hPa 0.0 l/m 1.0 km/h (0 Bft) O-SO 8.5 C 9.2 C
13.10.2001 09:00 9.8 C 94 % 1018.5 hPa 0.0 l/m 0.3 km/h (0 Bft) O-NO 8.9 C 9.8 C
13.10.2001 10:00 10.4 C 92 % 1018.5 hPa 0.0 l/m 0.3 km/h (0 Bft) O-SO 9.1 C 10.4 C
13.10.2001 11:00 11.1 C 89 % 1018.5 hPa 0.0 l/m 0.0 km/h (0 Bft) N 9.3 C 11.1 C
13.10.2001 12:00 12.1 C 86 % 1018.2 hPa 0.0 l/m 0.6 km/h (0 Bft) O-SO 9.8 C 12.1 C
13.10.2001 13:00 13.4 C 84 % 1017.3 hPa 0.0 l/m 1.3 km/h (1 Bft) O 10.7 C 13.4 C
13.10.2001 14:00 15.3 C 78 % 1016.4 hPa 0.0 l/m 0.4 km/h (0 Bft) O-SO 11.4 C 15.3 C
13.10.2001 15:00 17.4 C 71 % 1015.4 hPa 0.0 l/m 0.7 km/h (0 Bft) O-SO 12.0 C 17.4 C
13.10.2001 16:00 17.6 C 70 % 1015.4 hPa 0.0 l/m 3.5 km/h (1 Bft) O-SO 12.1 C 17.6 C
13.10.2001 17:00 17.0 C 73 % 1014.6 hPa 0.0 l/m 0.0 km/h (0 Bft) N 12.1 C 17.0 C
13.10.2001 18:00 15.1 C 82 % 1014.4 hPa 0.0 l/m 0.8 km/h (0 Bft) O-SO 11.9 C 15.1 C
13.10.2001 19:00 13.1 C 88 % 1014.4 hPa 0.0 l/m 1.0 km/h (0 Bft) O-SO 11.1 C 13.1 C
13.10.2001 20:00 11.8 C 90 % 1014.4 hPa 0.0 l/m 0.6 km/h (0 Bft) O-SO 10.2 C 11.8 C
13.10.2001 21:00 10.9 C 91 % 1014.4 hPa 0.0 l/m 1.2 km/h (1 Bft) O-SO 9.4 C 10.9 C
13.10.2001 22:00 10.2 C 91 % 1014.9 hPa 0.0 l/m 0.1 km/h (0 Bft) N 8.8 C 10.2 C
13.10.2001 23:00 10.5 C 92 % 1014.6 hPa 0.0 l/m 0.0 km/h (0 Bft) N 9.2 C 10.5 C
14.10.2001 00:00 11.1 C 93 % 1014.4 hPa 0.0 l/m 0.0 km/h (0 Bft) N 10.0 C 11.1 C
14.10.2001 01:00 11.2 C 93 % 1014.4 hPa 0.0 l/m 0.7 km/h (0 Bft) O-SO 10.1 C 11.2 C
14.10.2001 02:00 11.0 C 93 % 1014.4 hPa 0.0 l/m 0.5 km/h (0 Bft) O-SO 9.9 C 11.0 C
14.10.2001 03:00 11.0 C 93 % 1014.4 hPa 0.0 l/m 1.5 km/h (1 Bft) O 9.9 C 11.0 C
14.10.2001 04:00 11.0 C 93 % 1014.4 hPa 0.0 l/m 4.5 km/h (1 Bft) O-SO 10.0 C 11.0 C
14.10.2001 05:00 11.1 C 94 % 1014.4 hPa 0.0 l/m 0.3 km/h (0 Bft) O-SO 10.2 C 11.1 C
14.10.2001 06:00 10.7 C 94 % 1014.4 hPa 0.0 l/m 0.0 km/h (0 Bft) N 9.8 C 10.7 C
14.10.2001 07:00 10.5 C 94 % 1014.4 hPa 0.0 l/m 0.0 km/h (0 Bft) N 9.6 C 10.5 C
14.10.2001 08:00 10.9 C 95 % 1014.4 hPa 0.0 l/m 0.0 km/h (0 Bft) N 10.1 C 10.9 C
14.10.2001 09:00 11.7 C 95 % 1014.4 hPa 0.0 l/m 0.2 km/h (0 Bft) N 10.9 C 11.7 C
14.10.2001 10:00 12.8 C 91 % 1014.4 hPa 0.0 l/m 0.7 km/h (0 Bft) SO 11.3 C 12.8 C
14.10.2001 11:00 13.8 C 85 % 1014.4 hPa 0.0 l/m 0.7 km/h (0 Bft) W 11.3 C 13.8 C
14.10.2001 12:00 15.0 C 79 % 1014.2 hPa 0.0 l/m 1.1 km/h (0 Bft) W 11.3 C 15.0 C
14.10.2001 13:00 16.7 C 74 % 1013.3 hPa 0.0 l/m 2.1 km/h (1 Bft) W 11.9 C 16.7 C
14.10.2001 14:00 18.3 C 69 % 1012.7 hPa 0.0 l/m 1.3 km/h (1 Bft) W-NW 12.6 C 18.3 C
14.10.2001 15:00 20.2 C 64 % 1012.3 hPa 0.0 l/m 0.2 km/h (0 Bft) N 13.3 C 20.2 C
14.10.2001 16:00 20.6 C 64 % 1011.5 hPa 0.0 l/m 0.8 km/h (0 Bft) W 13.5 C 20.6 C
14.10.2001 17:00 20.0 C 69 % 1011.3 hPa 0.0 l/m 0.1 km/h (0 Bft) N 14.1 C 20.0 C
14.10.2001 18:00 17.6 C 79 % 1011.3 hPa 0.0 l/m 0.4 km/h (0 Bft) O 14.0 C 17.6 C
14.10.2001 19:00 15.5 C 86 % 1011.5 hPa 0.0 l/m 1.1 km/h (0 Bft) O 13.2 C 15.5 C
14.10.2001 20:00 14.1 C 89 % 1011.6 hPa 0.0 l/m 0.8 km/h (0 Bft) O 12.3 C 14.1 C
14.10.2001 21:00 13.0 C 90 % 1011.8 hPa 0.0 l/m 0.5 km/h (0 Bft) O 11.3 C 13.0 C
14.10.2001 22:00 12.2 C 90 % 1011.3 hPa 0.0 l/m 0.0 km/h (0 Bft) N 10.7 C 12.2 C
14.10.2001 23:00 12.4 C 91 % 1011.3 hPa 0.0 l/m 0.0 km/h (0 Bft) N 11.1 C 12.4 C
Min-Datum _ 12.10.01 10.10.01 08.10.01 - 08.10.01 - 08.10.01 12.10.01
_ Min-Zeit 07:30 16:34 00:01 - 00:01 - 16:26 07:24
Minimum _ 8.2 C 49 % 1002.6 hPa - 0.0 km/h (0 Bft) - 6.7 C 7.7 C
Max-Datum _ 14.10.01 11.10.01 11.10.01 08.10.01 08.10.01 - 14.10.01 14.10.01
_ Max-Zeit 16:50 09:20 10:47 19:00 14:29 - 17:32 16:50
Maximum _ 20.9 C 96 % 1025.8 hPa 2.2 l/m 47.8 km/h
W-NW (6 Bft)
- 14.6 C 20.9 C
Durchschnitt _ 12.3 C 86 % 1015.0 hPa #4.1 l/m 1.3 km/h (1 Bft) O-SO 9.9 C 12.3 C

Durchschnitt Minimum Temp.11.8 C
Durchschnitt Maximum Temp.12.9 C
© Kaiko 2001